createdAt,value
2023-05-14T00:01:07.481Z,76.29
2023-05-14T00:03:34.777Z,75.69
2023-05-14T00:06:02.047Z,76.61
2023-05-14T00:08:29.303Z,76.89
2023-05-14T00:10:56.506Z,76.68
2023-05-14T00:13:24.108Z,75.39
2023-05-14T00:15:52.377Z,75.35
2023-05-14T00:18:21.362Z,75.19
2023-05-14T00:20:48.587Z,76.16
2023-05-14T00:23:16.274Z,76.49
2023-05-14T00:25:43.476Z,76.33
2023-05-14T00:28:10.760Z,76.53
2023-05-14T00:30:38.087Z,76.47
2023-05-14T00:33:05.472Z,77.18
2023-05-14T00:35:34.395Z,77.27
2023-05-14T00:38:01.972Z,77.74
2023-05-14T00:40:29.346Z,77.16
2023-05-14T00:42:56.788Z,77.43
2023-05-14T00:45:24.048Z,77.88
2023-05-14T00:47:53.566Z,77.95
2023-05-14T00:50:21.384Z,77.67
2023-05-14T00:52:52.593Z,78.38
2023-05-14T00:55:22.396Z,78.94
2023-05-14T00:57:50.631Z,78.58
2023-05-14T01:00:18.408Z,77.94
2023-05-14T01:02:45.825Z,78.14
2023-05-14T01:05:15.675Z,78.13
2023-05-14T01:07:56.667Z,77.98
2023-05-14T01:10:29.008Z,78.06
2023-05-14T01:13:03.490Z,78.21
2023-05-14T01:15:33.345Z,78.52
2023-05-14T01:18:05.430Z,76.68
2023-05-14T01:20:32.972Z,75.72
2023-05-14T01:23:01.693Z,75.28
2023-05-14T01:25:29.757Z,76.71
2023-05-14T01:28:00.970Z,77.41
2023-05-14T01:30:31.557Z,77.28
2023-05-14T01:33:02.428Z,78.38
2023-05-14T01:35:30.575Z,78.10
2023-05-14T01:37:59.469Z,77.71
2023-05-14T01:40:29.123Z,78.04
2023-05-14T01:42:57.278Z,76.65
2023-05-14T01:45:24.647Z,78.67
2023-05-14T01:47:51.974Z,78.96
2023-05-14T01:50:19.465Z,79.42
2023-05-14T01:52:47.680Z,79.13
2023-05-14T01:55:16.611Z,78.87
2023-05-14T01:57:45.205Z,78.43
2023-05-14T02:00:13.111Z,77.39
2023-05-14T02:02:40.603Z,78.04
2023-05-14T02:05:09.456Z,78.49
2023-05-14T02:07:38.560Z,78.93
2023-05-14T02:10:07.314Z,78.44
2023-05-14T02:12:34.766Z,78.27
2023-05-14T02:15:03.880Z,79.29
2023-05-14T02:17:31.253Z,79.39
2023-05-14T02:19:58.513Z,78.72
2023-05-14T02:22:25.701Z,79.14
2023-05-14T02:24:53.002Z,79.30
2023-05-14T02:27:20.252Z,79.44
2023-05-14T02:29:47.446Z,79.49
2023-05-14T02:32:16.320Z,79.94
2023-05-14T02:34:43.560Z,80.12
2023-05-14T02:37:11.268Z,80.07
2023-05-14T02:39:38.558Z,80.34
2023-05-14T02:42:06.222Z,80.29
2023-05-14T02:44:36.397Z,78.32
2023-05-14T02:47:03.863Z,78.99
2023-05-14T02:49:33.860Z,79.19
2023-05-14T02:52:01.101Z,79.21
2023-05-14T02:54:28.434Z,77.62
2023-05-14T02:56:55.662Z,78.71
2023-05-14T02:59:24.361Z,78.88
2023-05-14T03:01:52.155Z,78.96
2023-05-14T03:04:20.112Z,76.99
2023-05-14T03:06:48.687Z,76.10
2023-05-14T03:09:15.919Z,75.76
2023-05-14T03:11:43.152Z,75.64
2023-05-14T03:14:10.599Z,76.94
2023-05-14T03:16:37.897Z,78.57
2023-05-14T03:19:05.154Z,78.28
2023-05-14T03:21:32.434Z,79.53
2023-05-14T03:24:01.049Z,79.53
2023-05-14T03:26:28.561Z,79.75
2023-05-14T03:28:56.056Z,79.10
2023-05-14T03:31:23.601Z,79.62
2023-05-14T03:33:51.046Z,80.99
2023-05-14T03:36:18.234Z,80.70
2023-05-14T03:38:46.684Z,81.35
2023-05-14T03:41:15.568Z,81.57
2023-05-14T03:43:43.030Z,81.49
2023-05-14T03:46:10.268Z,81.42
2023-05-14T03:48:37.507Z,80.04
2023-05-14T03:51:06.219Z,80.56
2023-05-14T03:53:33.943Z,79.78
2023-05-14T03:56:01.131Z,80.60
2023-05-14T03:58:29.902Z,80.39
2023-05-14T04:00:58.162Z,79.60
2023-05-14T04:03:25.506Z,80.84
2023-05-14T04:05:52.832Z,80.69
2023-05-14T04:08:21.342Z,81.33
2023-05-14T04:10:48.590Z,82.10
2023-05-14T04:13:15.840Z,81.99
2023-05-14T04:15:44.456Z,81.50
2023-05-14T04:18:11.946Z,81.50
2023-05-14T04:20:39.278Z,81.85
2023-05-14T04:23:06.665Z,81.18
2023-05-14T04:25:35.108Z,81.08
2023-05-14T04:28:02.380Z,80.80
2023-05-14T04:30:32.152Z,80.02
2023-05-14T04:33:03.396Z,79.96
2023-05-14T04:35:30.787Z,79.42
2023-05-14T04:37:57.988Z,78.82
2023-05-14T04:40:25.417Z,78.20
2023-05-14T04:42:54.252Z,77.96
2023-05-14T04:45:21.607Z,77.77
2023-05-14T04:47:49.210Z,77.76
2023-05-14T04:50:18.076Z,77.28
2023-05-14T04:52:45.532Z,76.37
2023-05-14T04:55:12.792Z,76.53
2023-05-14T04:57:40.078Z,76.75
2023-05-14T05:00:08.396Z,76.85
2023-05-14T05:02:35.771Z,77.10
2023-05-14T05:05:03.887Z,77.55
2023-05-14T05:07:32.296Z,77.23
2023-05-14T05:09:59.388Z,77.28
2023-05-14T05:12:26.691Z,77.07
2023-05-14T05:14:53.924Z,76.29
2023-05-14T05:17:21.213Z,75.75
2023-05-14T05:19:48.652Z,75.10
2023-05-14T05:22:16.112Z,73.74
2023-05-14T05:24:44.709Z,71.82
2023-05-14T05:27:11.939Z,70.30
2023-05-14T05:29:39.141Z,71.24
2023-05-14T05:32:07.591Z,70.49
2023-05-14T05:34:34.890Z,69.91
2023-05-14T05:37:02.149Z,69.00
2023-05-14T05:39:30.818Z,68.37
2023-05-14T05:41:59.457Z,67.52
2023-05-14T05:44:26.690Z,67.30
2023-05-14T05:46:54.010Z,66.86
2023-05-14T05:49:22.476Z,67.33
2023-05-14T05:51:50.671Z,65.34
2023-05-14T05:54:17.982Z,63.78
2023-05-14T05:56:45.259Z,63.53
2023-05-14T05:59:13.885Z,62.10
2023-05-14T06:01:41.172Z,63.34
2023-05-14T06:04:08.465Z,61.54
2023-05-14T06:06:35.834Z,61.28
2023-05-14T06:09:03.298Z,61.41
2023-05-14T06:11:30.505Z,61.16
2023-05-14T06:13:58.677Z,61.01
2023-05-14T06:16:27.603Z,59.89
2023-05-14T06:18:55.000Z,59.72
2023-05-14T06:21:22.326Z,59.48
2023-05-14T06:23:49.606Z,58.84
2023-05-14T06:26:16.822Z,58.06
2023-05-14T06:28:47.955Z,58.23
2023-05-14T06:31:15.171Z,58.29
2023-05-14T06:33:43.861Z,58.04
2023-05-14T06:36:11.271Z,58.25
2023-05-14T06:38:38.517Z,57.49
2023-05-14T06:41:05.871Z,57.84
2023-05-14T06:43:33.056Z,57.92
2023-05-14T06:46:00.257Z,57.17
2023-05-14T06:48:27.637Z,58.12
2023-05-14T06:50:57.722Z,57.03
2023-05-14T06:53:24.979Z,56.24
2023-05-14T06:55:52.336Z,56.75
2023-05-14T06:58:19.586Z,56.36
2023-05-14T07:00:46.779Z,56.07
2023-05-14T07:03:14.173Z,55.84
2023-05-14T07:05:41.478Z,55.12
2023-05-14T07:08:12.663Z,55.22
2023-05-14T07:10:39.911Z,54.31
2023-05-14T07:13:08.601Z,53.11
2023-05-14T07:15:35.856Z,52.01
2023-05-14T07:18:03.691Z,52.64
2023-05-14T07:20:30.696Z,51.10
2023-05-14T07:22:57.774Z,50.83
2023-05-14T07:25:26.380Z,52.13
2023-05-14T07:27:53.608Z,50.60
2023-05-14T07:30:21.463Z,51.08
2023-05-14T07:32:48.932Z,51.34
2023-05-14T07:35:16.319Z,49.72
2023-05-14T07:37:43.874Z,48.22
2023-05-14T07:40:11.439Z,47.49
2023-05-14T07:42:40.086Z,46.58
2023-05-14T07:45:08.793Z,47.46
2023-05-14T07:47:36.089Z,47.11
2023-05-14T07:50:03.593Z,44.37
2023-05-14T07:52:30.873Z,44.83
2023-05-14T07:54:58.134Z,45.12
2023-05-14T07:57:25.321Z,45.70
2023-05-14T07:59:56.110Z,44.13
2023-05-14T08:02:24.846Z,44.77
2023-05-14T08:04:52.589Z,44.66
2023-05-14T08:07:19.602Z,45.51
2023-05-14T08:09:48.077Z,42.88
2023-05-14T08:12:15.310Z,41.68
2023-05-14T08:14:43.594Z,42.04
2023-05-14T08:17:12.640Z,42.98
2023-05-14T08:19:40.041Z,42.80
2023-05-14T08:22:07.278Z,43.32
2023-05-14T08:24:34.574Z,41.19
2023-05-14T08:27:01.813Z,42.33
2023-05-14T08:29:29.020Z,41.10
2023-05-14T08:31:56.256Z,41.14
2023-05-14T08:34:24.906Z,39.81
2023-05-14T08:36:53.179Z,40.15
2023-05-14T08:39:20.525Z,38.99
2023-05-14T08:41:48.198Z,39.14
2023-05-14T08:44:20.546Z,38.05
2023-05-14T08:46:49.810Z,38.15
2023-05-14T08:49:28.890Z,34.66
2023-05-14T08:51:58.115Z,33.63
2023-05-14T08:54:25.968Z,31.33
2023-05-14T08:56:55.799Z,31.82
2023-05-14T08:59:23.041Z,30.18
2023-05-14T09:01:54.215Z,29.89
2023-05-14T09:04:23.967Z,29.00
2023-05-14T09:06:53.051Z,27.50
2023-05-14T09:09:23.260Z,26.94
2023-05-14T09:11:51.796Z,28.37
2023-05-14T09:14:23.502Z,27.26
2023-05-14T09:16:51.470Z,26.34
2023-05-14T09:19:20.077Z,26.68
2023-05-14T09:21:48.590Z,28.60
2023-05-14T09:24:22.719Z,29.55
2023-05-14T09:26:51.236Z,30.27
2023-05-14T09:29:18.943Z,31.74
2023-05-14T09:31:46.231Z,31.37
2023-05-14T09:34:24.103Z,32.42
2023-05-14T09:36:56.212Z,34.60
2023-05-14T09:39:25.236Z,33.38
2023-05-14T09:41:52.514Z,32.19
2023-05-14T09:44:20.370Z,33.21
2023-05-14T09:46:48.366Z,33.44
2023-05-14T09:49:16.681Z,33.13
2023-05-14T09:51:44.093Z,33.46
2023-05-14T09:54:12.234Z,33.03
2023-05-14T09:56:40.997Z,33.05
2023-05-14T09:59:08.299Z,34.18
2023-05-14T10:01:39.211Z,35.35
2023-05-14T10:04:07.984Z,34.44
2023-05-14T10:06:37.793Z,35.61
2023-05-14T10:09:09.890Z,34.28
2023-05-14T10:11:38.767Z,32.07
2023-05-14T10:14:09.998Z,31.67
2023-05-14T10:16:43.616Z,32.60
2023-05-14T10:19:12.982Z,32.97
2023-05-14T10:21:44.847Z,33.74
2023-05-14T10:24:12.660Z,33.40
2023-05-14T10:26:41.244Z,34.12
2023-05-14T10:29:11.006Z,34.28
2023-05-14T10:31:49.187Z,33.94
2023-05-14T10:34:33.306Z,34.61
2023-05-14T10:37:03.407Z,34.15
2023-05-14T10:39:44.178Z,34.11
2023-05-14T10:42:15.143Z,35.33
2023-05-14T10:44:52.618Z,35.52
2023-05-14T10:47:22.882Z,35.21
2023-05-14T10:49:52.940Z,35.51
2023-05-14T10:52:21.209Z,35.94
2023-05-14T10:54:53.420Z,37.73
2023-05-14T10:57:22.585Z,35.85
2023-05-14T10:59:54.396Z,36.08
2023-05-14T11:02:24.081Z,38.12
2023-05-14T11:05:00.350Z,37.22
2023-05-14T11:07:29.198Z,36.00
2023-05-14T11:10:01.021Z,34.69
2023-05-14T11:12:29.107Z,33.89
2023-05-14T11:14:59.680Z,34.69
2023-05-14T11:17:27.982Z,34.22
2023-05-14T11:19:56.191Z,32.82
2023-05-14T11:22:23.499Z,35.25
2023-05-14T11:24:51.822Z,35.63
2023-05-14T11:27:20.596Z,35.92
2023-05-14T11:29:48.668Z,36.94
2023-05-14T11:32:18.026Z,37.75
2023-05-14T11:34:48.303Z,37.80
2023-05-14T11:37:16.413Z,37.81
2023-05-14T11:39:48.002Z,38.82
2023-05-14T11:42:15.654Z,39.05
2023-05-14T11:44:42.851Z,38.44
2023-05-14T11:47:10.806Z,40.28
2023-05-14T11:49:39.456Z,39.73
2023-05-14T11:52:08.072Z,40.76
2023-05-14T11:54:35.376Z,40.19
2023-05-14T11:57:08.405Z,40.88
2023-05-14T11:59:36.088Z,38.69
2023-05-14T12:02:04.114Z,39.09
2023-05-14T12:04:31.767Z,38.48
2023-05-14T12:07:07.660Z,36.14
2023-05-14T12:09:36.967Z,33.08
2023-05-14T12:12:09.174Z,32.74
2023-05-14T12:14:38.526Z,31.50
2023-05-14T12:17:12.308Z,31.30
2023-05-14T12:19:40.350Z,31.92
2023-05-14T12:22:09.997Z,30.71
2023-05-14T12:24:37.379Z,30.60
2023-05-14T12:27:05.769Z,30.00
2023-05-14T12:29:36.009Z,30.05
2023-05-14T12:32:03.357Z,31.40
2023-05-14T12:34:30.555Z,30.52
2023-05-14T12:36:57.787Z,30.42
2023-05-14T12:39:26.360Z,32.01
2023-05-14T12:41:53.582Z,31.80
2023-05-14T12:44:20.795Z,32.26
2023-05-14T12:46:48.085Z,33.02
2023-05-14T12:49:15.607Z,32.08
2023-05-14T12:51:42.625Z,28.88
2023-05-14T12:54:09.755Z,28.45
2023-05-14T12:56:39.830Z,27.79
2023-05-14T12:59:07.057Z,29.07
2023-05-14T13:01:34.395Z,31.13
2023-05-14T13:04:01.542Z,31.26
2023-05-14T13:06:28.799Z,32.05
2023-05-14T13:08:56.005Z,32.54
2023-05-14T13:11:23.210Z,34.45
2023-05-14T13:13:51.808Z,34.33
2023-05-14T13:16:19.191Z,35.13
2023-05-14T13:18:46.559Z,35.85
2023-05-14T13:21:13.790Z,35.99
2023-05-14T13:23:43.093Z,34.76
2023-05-14T13:26:11.307Z,35.15
2023-05-14T13:28:38.484Z,35.28
2023-05-14T13:31:09.488Z,35.52
2023-05-14T13:33:38.330Z,35.33
2023-05-14T13:36:06.095Z,35.11
2023-05-14T13:38:33.582Z,34.58
2023-05-14T13:41:01.049Z,33.98
2023-05-14T13:43:30.267Z,35.15
2023-05-14T13:45:57.832Z,33.67
2023-05-14T13:48:26.676Z,33.55
2023-05-14T13:50:54.143Z,33.70
2023-05-14T13:53:22.243Z,32.59
2023-05-14T13:55:49.670Z,32.57
2023-05-14T13:58:17.212Z,31.52
2023-05-14T14:00:44.444Z,31.33
2023-05-14T14:03:12.009Z,30.16
2023-05-14T14:05:40.434Z,31.09
2023-05-14T14:08:21.879Z,31.68
2023-05-14T14:10:52.370Z,30.79
2023-05-14T14:13:19.683Z,30.34
2023-05-14T14:15:47.250Z,31.05
2023-05-14T14:18:14.277Z,31.09
2023-05-14T14:20:42.978Z,30.52
2023-05-14T14:23:10.227Z,31.10
2023-05-14T14:25:37.565Z,30.35
2023-05-14T14:28:05.279Z,30.51
2023-05-14T14:30:32.726Z,31.05
2023-05-14T14:32:59.947Z,31.47
2023-05-14T14:35:27.307Z,30.54
2023-05-14T14:37:56.190Z,30.09
2023-05-14T14:40:23.493Z,30.72
2023-05-14T14:42:50.847Z,31.48
2023-05-14T14:45:18.307Z,31.19
2023-05-14T14:47:46.529Z,32.42
2023-05-14T14:50:14.059Z,32.64
2023-05-14T14:52:42.663Z,32.06
2023-05-14T14:55:12.451Z,32.58
2023-05-14T14:57:39.728Z,33.20
2023-05-14T15:00:07.906Z,34.43
2023-05-14T15:02:35.529Z,34.18
2023-05-14T15:05:02.814Z,33.83
2023-05-14T15:07:30.098Z,35.94
2023-05-14T15:09:57.591Z,32.95
2023-05-14T15:12:26.018Z,32.86
2023-05-14T15:14:53.132Z,34.35
2023-05-14T15:17:20.595Z,35.02
2023-05-14T15:19:47.818Z,34.97
2023-05-14T15:22:15.200Z,34.61
2023-05-14T15:24:42.396Z,33.21
2023-05-14T15:27:09.633Z,34.01
2023-05-14T15:29:39.610Z,33.57
2023-05-14T15:32:07.210Z,33.79
2023-05-14T15:34:34.448Z,34.03
2023-05-14T15:37:01.928Z,34.07
2023-05-14T15:39:30.113Z,33.35
2023-05-14T15:41:57.579Z,33.80
2023-05-14T15:44:24.763Z,33.32
2023-05-14T15:46:55.080Z,33.38
2023-05-14T15:49:22.375Z,32.87
2023-05-14T15:51:49.668Z,33.43
2023-05-14T15:54:17.189Z,34.68
2023-05-14T15:56:44.269Z,33.63
2023-05-14T15:59:11.661Z,32.57
2023-05-14T16:01:38.923Z,33.08
2023-05-14T16:04:07.667Z,32.84
2023-05-14T16:06:34.983Z,32.83
2023-05-14T16:09:02.341Z,33.34
2023-05-14T16:11:30.161Z,34.40
2023-05-14T16:13:57.351Z,34.00
2023-05-14T16:16:24.667Z,33.82
2023-05-14T16:18:51.978Z,33.87
2023-05-14T16:21:20.577Z,33.68
2023-05-14T16:23:47.805Z,35.05
2023-05-14T16:26:15.072Z,34.25
2023-05-14T16:28:42.363Z,34.96
2023-05-14T16:31:12.114Z,34.76
2023-05-14T16:35:57.375Z,34.82
2023-05-14T16:38:26.062Z,35.09
2023-05-14T16:40:53.170Z,35.81
2023-05-14T16:43:20.440Z,35.09
2023-05-14T16:45:47.712Z,35.59
2023-05-14T16:48:14.977Z,35.54
2023-05-14T16:50:42.322Z,36.07
2023-05-14T16:53:09.543Z,35.77
2023-05-14T16:55:40.376Z,35.73
2023-05-14T16:58:08.860Z,36.58
2023-05-14T17:00:36.120Z,36.83
2023-05-14T17:03:03.478Z,35.96
2023-05-14T17:05:30.747Z,36.56
2023-05-14T17:07:57.936Z,37.11
2023-05-14T17:10:26.509Z,37.40
2023-05-14T17:12:55.101Z,36.94
2023-05-14T17:15:22.411Z,37.16
2023-05-14T17:17:49.753Z,37.27
2023-05-14T17:20:18.368Z,37.68
2023-05-14T17:22:45.672Z,37.53
2023-05-14T17:25:12.906Z,38.31
2023-05-14T17:27:40.164Z,38.41
2023-05-14T17:30:10.410Z,38.61
2023-05-14T17:32:37.732Z,39.20
2023-05-14T17:35:05.852Z,38.16
2023-05-14T17:37:33.059Z,38.68
2023-05-14T17:40:00.287Z,38.85
2023-05-14T17:42:27.801Z,40.19
2023-05-14T17:44:55.043Z,41.26
2023-05-14T17:47:24.686Z,40.80
2023-05-14T17:49:51.989Z,40.77
2023-05-14T17:52:21.340Z,41.93
2023-05-14T17:54:51.389Z,41.70
2023-05-14T17:57:20.361Z,42.69
2023-05-14T17:59:47.571Z,43.26
2023-05-14T18:02:15.827Z,43.76
2023-05-14T18:04:44.459Z,43.91
2023-05-14T18:07:11.739Z,45.11
2023-05-14T18:09:38.978Z,46.09
2023-05-14T18:12:07.307Z,44.84
2023-05-14T18:14:34.755Z,45.82
2023-05-14T18:17:02.132Z,46.50
2023-05-14T18:19:30.190Z,47.65
2023-05-14T18:21:58.811Z,49.42
2023-05-14T18:24:26.079Z,49.76
2023-05-14T18:26:54.098Z,50.82
2023-05-14T18:29:21.366Z,50.18
2023-05-14T18:31:48.783Z,50.73
2023-05-14T18:34:16.064Z,52.07
2023-05-14T18:36:43.393Z,51.49
2023-05-14T18:39:12.007Z,52.44
2023-05-14T18:41:39.241Z,53.10
2023-05-14T18:44:06.482Z,52.88
2023-05-14T18:46:33.935Z,52.91
2023-05-14T18:49:01.180Z,54.99
2023-05-14T18:51:28.389Z,54.96
2023-05-14T18:53:55.610Z,54.72
2023-05-14T18:56:24.260Z,55.91
2023-05-14T18:58:52.460Z,55.24
2023-05-14T19:01:19.658Z,56.20
2023-05-14T19:03:47.054Z,57.28
2023-05-14T19:06:14.416Z,57.47
2023-05-14T19:08:43.211Z,58.83
2023-05-14T19:11:13.580Z,57.93
2023-05-14T19:13:44.634Z,56.87
2023-05-14T19:16:12.363Z,57.95
2023-05-14T19:18:39.507Z,57.45
2023-05-14T19:21:06.912Z,57.76
2023-05-14T19:23:34.196Z,58.71
2023-05-14T19:26:01.497Z,58.46
2023-05-14T19:28:28.734Z,57.77
2023-05-14T19:30:57.565Z,60.08
2023-05-14T19:33:24.816Z,61.09
2023-05-14T19:35:53.057Z,59.03
2023-05-14T19:38:21.052Z,59.70
2023-05-14T19:40:48.337Z,60.46
2023-05-14T19:43:15.547Z,62.13
2023-05-14T19:45:42.996Z,61.62
2023-05-14T19:48:11.649Z,61.32
2023-05-14T19:50:38.970Z,59.11
2023-05-14T19:53:06.140Z,58.13
2023-05-14T19:55:33.341Z,59.40
2023-05-14T19:58:00.537Z,60.83
2023-05-14T20:00:28.080Z,59.83
2023-05-14T20:02:55.581Z,61.71
2023-05-14T20:05:24.454Z,60.34
2023-05-14T20:07:51.887Z,59.84
2023-05-14T20:10:19.688Z,59.94
2023-05-14T20:12:47.137Z,61.13
2023-05-14T20:15:14.673Z,61.77
2023-05-14T20:17:41.842Z,61.83
2023-05-14T20:20:09.518Z,63.73
2023-05-14T20:22:39.503Z,64.28
2023-05-14T20:25:07.310Z,65.21
2023-05-14T20:27:35.884Z,65.58
2023-05-14T20:30:04.521Z,66.06
2023-05-14T20:32:34.166Z,65.55
2023-05-14T20:35:01.702Z,65.53
2023-05-14T20:37:29.482Z,66.64
2023-05-14T20:39:58.208Z,65.81
2023-05-14T20:42:26.235Z,65.67
2023-05-14T20:44:54.287Z,65.92
2023-05-14T20:47:21.647Z,66.46
2023-05-14T20:49:48.839Z,66.35
2023-05-14T20:52:16.324Z,65.42
2023-05-14T20:54:43.927Z,66.34
2023-05-14T20:57:15.327Z,65.41
2023-05-14T20:59:42.915Z,66.70
2023-05-14T21:02:10.370Z,68.25
2023-05-14T21:04:38.205Z,67.42
2023-05-14T21:07:05.558Z,68.06
2023-05-14T21:09:32.878Z,68.26
2023-05-14T21:12:00.263Z,68.16
2023-05-14T21:14:29.062Z,68.41
2023-05-14T21:16:56.286Z,67.71
2023-05-14T21:19:23.562Z,66.45
2023-05-14T21:21:51.239Z,68.10
2023-05-14T21:24:18.432Z,68.81
2023-05-14T21:26:46.108Z,68.25
2023-05-14T21:29:13.640Z,68.39
2023-05-14T21:31:42.395Z,67.61
2023-05-14T21:34:09.810Z,68.31
2023-05-14T21:36:37.365Z,70.54
2023-05-14T21:39:05.793Z,71.22
2023-05-14T21:41:33.027Z,72.68
2023-05-14T21:44:00.323Z,72.37
2023-05-14T21:46:27.831Z,71.89
2023-05-14T21:48:56.925Z,71.28
2023-05-14T21:51:24.282Z,71.24
2023-05-14T21:53:51.530Z,70.94
2023-05-14T21:56:18.775Z,70.80
2023-05-14T21:58:45.966Z,72.58
2023-05-14T22:01:13.262Z,71.45
2023-05-14T22:03:40.526Z,70.80
2023-05-14T22:06:09.238Z,70.86
2023-05-14T22:08:36.707Z,70.50
2023-05-14T22:11:04.591Z,69.50
2023-05-14T22:13:32.873Z,68.76
2023-05-14T22:16:09.062Z,69.25
2023-05-14T22:18:40.508Z,70.54
2023-05-14T22:21:09.070Z,70.07
2023-05-14T22:23:36.330Z,68.71
2023-05-14T22:26:04.462Z,69.18
2023-05-14T22:28:31.674Z,69.10
2023-05-14T22:31:00.097Z,68.99
2023-05-14T22:33:27.388Z,69.97
2023-05-14T22:35:54.568Z,69.46
2023-05-14T22:38:23.152Z,71.46
2023-05-14T22:40:51.822Z,72.30
2023-05-14T22:43:19.029Z,72.44
2023-05-14T22:45:46.364Z,71.67
2023-05-14T22:48:13.566Z,71.51
2023-05-14T22:50:40.983Z,71.41
2023-05-14T22:53:08.305Z,70.56
2023-05-14T22:55:37.020Z,70.68
2023-05-14T22:58:04.484Z,71.69
2023-05-14T23:00:31.758Z,73.15
2023-05-14T23:02:59.041Z,73.50
2023-05-14T23:05:26.665Z,73.05
2023-05-14T23:07:54.177Z,73.84
2023-05-14T23:10:22.884Z,73.87
2023-05-14T23:12:51.480Z,71.73
2023-05-14T23:15:18.739Z,72.50
2023-05-14T23:17:46.396Z,74.08
2023-05-14T23:20:13.642Z,74.07
2023-05-14T23:22:40.905Z,74.71
2023-05-14T23:25:09.207Z,73.99
2023-05-14T23:27:36.673Z,75.00
2023-05-14T23:30:06.762Z,74.55
2023-05-14T23:32:34.048Z,75.42
2023-05-14T23:35:01.402Z,75.38
2023-05-14T23:37:28.792Z,74.71
2023-05-14T23:39:56.286Z,76.23
2023-05-14T23:42:23.465Z,76.87
2023-05-14T23:44:50.801Z,76.56
2023-05-14T23:47:19.480Z,75.82
2023-05-14T23:49:46.915Z,76.75
2023-05-14T23:52:14.122Z,77.00
2023-05-14T23:54:41.398Z,77.46
2023-05-14T23:57:08.692Z,78.14
2023-05-14T23:59:37.072Z,78.12
